createdAt,value
2019-03-10T00:07:46.810Z,80.80
2019-03-10T00:12:22.548Z,80.50
2019-03-10T00:16:58.317Z,80.60
2019-03-10T00:21:34.067Z,81.30
2019-03-10T00:26:09.832Z,81.10
2019-03-10T00:30:45.569Z,82.50
2019-03-10T00:35:21.702Z,83.30
2019-03-10T00:40:46.982Z,83.80
2019-03-10T00:45:59.243Z,84.60
2019-03-10T00:51:06.229Z,84.40
2019-03-10T00:55:41.975Z,84.70
2019-03-10T01:00:18.503Z,84.20
2019-03-10T01:04:54.305Z,82.70
2019-03-10T01:09:30.084Z,82.90
2019-03-10T01:14:05.829Z,82.10
2019-03-10T01:18:41.993Z,82.80
2019-03-10T01:23:17.728Z,82.60
2019-03-10T01:27:53.512Z,81.40
2019-03-10T01:33:19.218Z,81.40
2019-03-10T01:37:55.005Z,82.70
2019-03-10T01:42:30.777Z,81.20
2019-03-10T01:47:06.525Z,82.00
2019-03-10T01:51:42.283Z,81.90
2019-03-10T01:56:18.033Z,82.20
2019-03-10T02:00:53.801Z,81.80
2019-03-10T02:05:29.545Z,80.30
2019-03-10T02:10:06.089Z,80.60
2019-03-10T02:14:41.843Z,79.70
2019-03-10T02:19:17.608Z,80.60
2019-03-10T02:23:53.367Z,78.60
2019-03-10T02:28:29.143Z,78.30
2019-03-10T02:33:05.406Z,78.10
2019-03-10T02:37:41.228Z,77.70
2019-03-10T02:42:17.014Z,78.70
2019-03-10T02:46:52.836Z,78.60
2019-03-10T02:51:28.577Z,80.20
2019-03-10T02:56:04.346Z,80.30
2019-03-10T03:00:40.098Z,79.00
2019-03-10T03:05:15.879Z,79.20
2019-03-10T03:09:51.702Z,78.10
2019-03-10T03:14:27.524Z,78.30
2019-03-10T03:19:03.296Z,79.40
2019-03-10T03:23:39.141Z,77.50
2019-03-10T03:28:14.902Z,79.00
2019-03-10T03:32:50.941Z,78.90
2019-03-10T03:37:26.733Z,78.50
2019-03-10T03:42:02.508Z,78.80
2019-03-10T03:46:38.346Z,78.90
2019-03-10T03:51:14.122Z,77.70
2019-03-10T03:55:49.945Z,77.60
2019-03-10T04:00:25.716Z,78.00
2019-03-10T04:05:01.472Z,79.40
2019-03-10T04:09:37.254Z,77.30
2019-03-10T04:14:13.005Z,79.50
2019-03-10T04:18:48.766Z,76.80
2019-03-10T04:23:24.508Z,80.40
2019-03-10T04:28:00.268Z,77.80
2019-03-10T04:32:36.009Z,77.50
2019-03-10T04:37:30.825Z,79.40
2019-03-10T04:42:06.580Z,79.50
2019-03-10T04:46:42.359Z,81.00
2019-03-10T04:51:18.108Z,81.10
2019-03-10T04:56:12.814Z,82.10
2019-03-10T05:00:51.411Z,81.10
2019-03-10T05:05:27.175Z,83.20
2019-03-10T05:10:02.938Z,81.50
2019-03-10T05:14:38.769Z,84.20
2019-03-10T05:19:14.516Z,87.00
2019-03-10T05:23:50.332Z,84.90
2019-03-10T05:28:26.105Z,82.70
2019-03-10T05:33:00.525Z,86.80
2019-03-10T05:37:36.277Z,84.80
2019-03-10T05:42:12.041Z,86.10
2019-03-10T05:46:47.833Z,85.20
2019-03-10T05:51:23.588Z,86.60
2019-03-10T05:55:59.343Z,87.80
2019-03-10T06:00:42.810Z,84.50
2019-03-10T06:05:12.562Z,86.60
2019-03-10T06:09:48.357Z,84.30
2019-03-10T06:14:24.140Z,86.00
2019-03-10T06:19:00.028Z,81.90
2019-03-10T06:23:35.769Z,84.40
2019-03-10T06:28:11.532Z,82.90
2019-03-10T06:32:47.287Z,79.00
2019-03-10T06:37:23.056Z,79.60
2019-03-10T06:41:58.817Z,80.40
2019-03-10T06:46:34.704Z,81.80
2019-03-10T06:51:10.510Z,78.90
2019-03-10T06:55:46.275Z,80.10
2019-03-10T07:00:22.013Z,79.90
2019-03-10T07:04:57.765Z,78.20
2019-03-10T07:09:33.520Z,78.20
2019-03-10T07:14:09.291Z,79.70
2019-03-10T07:18:45.079Z,79.50
2019-03-10T07:23:20.849Z,80.30
2019-03-10T07:28:22.373Z,76.90
2019-03-10T07:33:26.208Z,81.10
2019-03-10T07:38:19.664Z,77.80
2019-03-10T07:43:20.489Z,78.00
2019-03-10T07:48:18.220Z,77.00
2019-03-10T07:53:04.476Z,74.60
2019-03-10T07:58:11.085Z,76.10
2019-03-10T08:03:11.588Z,76.10
2019-03-10T08:08:12.488Z,81.10
2019-03-10T08:12:56.627Z,86.00
2019-03-10T08:17:54.365Z,88.20
2019-03-10T08:22:51.826Z,86.90
2019-03-10T08:28:01.961Z,87.40
2019-03-10T08:32:53.197Z,86.50
2019-03-10T08:37:51.915Z,87.00
2019-03-10T08:42:46.603Z,83.30
2019-03-10T08:47:43.273Z,84.10
2019-03-10T08:52:47.017Z,83.30
2019-03-10T08:57:40.097Z,79.90
2019-03-10T09:02:41.992Z,81.60
2019-03-10T09:07:33.174Z,80.70
2019-03-10T09:12:19.412Z,79.50
2019-03-10T09:17:01.557Z,79.20
2019-03-10T09:22:02.412Z,78.60
2019-03-10T09:26:48.178Z,77.60
2019-03-10T09:31:31.500Z,80.70
2019-03-10T09:36:17.597Z,74.50
2019-03-10T09:41:12.958Z,78.20
2019-03-10T09:46:10.685Z,81.60
2019-03-10T09:51:03.884Z,79.80
2019-03-10T09:55:58.677Z,76.60
2019-03-10T10:00:53.513Z,73.20
2019-03-10T10:06:06.438Z,73.40
2019-03-10T10:10:51.568Z,77.50
2019-03-10T10:15:38.925Z,76.80
2019-03-10T10:20:29.764Z,74.40
2019-03-10T10:25:13.405Z,75.20
2019-03-10T10:29:58.144Z,70.20
2019-03-10T10:34:48.257Z,73.10
2019-03-10T10:39:55.113Z,71.50
2019-03-10T10:44:51.085Z,69.70
2019-03-10T10:49:45.808Z,72.70
2019-03-10T10:54:27.539Z,70.40
2019-03-10T10:59:22.251Z,72.60
2019-03-10T11:04:16.991Z,70.70
2019-03-10T11:09:06.008Z,70.70
2019-03-10T11:13:59.029Z,68.60
2019-03-10T11:18:55.977Z,69.00
2019-03-10T11:23:47.730Z,67.40
2019-03-10T11:28:45.212Z,65.90
2019-03-10T11:33:42.976Z,67.00
2019-03-10T11:38:37.660Z,67.10
2019-03-10T11:43:19.627Z,66.40
2019-03-10T11:48:11.466Z,66.60
2019-03-10T11:53:18.672Z,66.70
2019-03-10T11:58:14.165Z,65.30
2019-03-10T12:02:58.484Z,67.90
2019-03-10T12:07:49.964Z,64.60
2019-03-10T12:12:25.736Z,67.50
2019-03-10T12:17:01.565Z,62.80
2019-03-10T12:21:37.316Z,66.00
2019-03-10T12:26:13.089Z,66.00
2019-03-10T12:30:48.841Z,65.70
2019-03-10T12:35:33.858Z,67.30
2019-03-10T12:40:02.057Z,66.20
2019-03-10T12:44:37.845Z,68.00
2019-03-10T12:49:13.596Z,67.00
2019-03-10T12:53:49.364Z,67.20
2019-03-10T12:58:25.113Z,65.30
2019-03-10T13:03:00.914Z,64.70
2019-03-10T13:07:36.760Z,66.90
2019-03-10T13:12:12.534Z,67.00
2019-03-10T13:16:48.288Z,63.00
2019-03-10T13:21:25.901Z,68.40
2019-03-10T13:26:01.505Z,60.60
2019-03-10T13:30:37.360Z,63.30
2019-03-10T13:35:13.634Z,62.00
2019-03-10T13:39:49.404Z,53.80
2019-03-10T13:44:26.413Z,52.70
2019-03-10T13:49:02.309Z,52.80
2019-03-10T13:53:38.166Z,54.40
2019-03-10T13:58:13.933Z,51.80
2019-03-10T14:02:49.702Z,53.70
2019-03-10T14:07:25.492Z,45.20
2019-03-10T14:12:02.158Z,52.20
2019-03-10T14:16:37.998Z,51.60
2019-03-10T14:21:13.790Z,50.50
2019-03-10T14:25:50.833Z,50.90
2019-03-10T14:30:26.670Z,43.00
2019-03-10T14:35:02.460Z,43.80
2019-03-10T14:39:38.523Z,46.40
2019-03-10T14:44:14.595Z,44.80
2019-03-10T14:48:51.303Z,46.40
2019-03-10T14:53:27.149Z,40.70
2019-03-10T14:58:03.311Z,44.30
2019-03-10T15:02:40.130Z,43.50
2019-03-10T15:07:16.057Z,38.40
2019-03-10T15:11:51.820Z,42.50
2019-03-10T15:16:27.600Z,41.50
2019-03-10T15:21:03.392Z,42.80
2019-03-10T15:25:39.140Z,44.30
2019-03-10T15:30:16.804Z,45.00
2019-03-10T15:34:52.603Z,46.80
2019-03-10T15:39:28.442Z,51.10
2019-03-10T15:44:04.197Z,48.70
2019-03-10T15:48:39.967Z,45.90
2019-03-10T15:53:15.725Z,47.20
2019-03-10T15:57:51.533Z,50.30
2019-03-10T16:02:27.294Z,54.30
2019-03-10T16:07:03.064Z,52.20
2019-03-10T16:11:38.817Z,54.50
2019-03-10T16:16:14.628Z,56.70
2019-03-10T16:20:50.411Z,58.50
2019-03-10T16:25:26.209Z,61.50
2019-03-10T16:30:01.989Z,66.00
2019-03-10T16:34:37.821Z,72.20
2019-03-10T16:39:13.680Z,73.00
2019-03-10T16:43:49.473Z,74.00
2019-03-10T16:48:25.224Z,74.40
2019-03-10T16:53:01.491Z,68.50
2019-03-10T16:57:37.321Z,60.70
2019-03-10T17:02:13.080Z,51.30
2019-03-10T17:06:48.836Z,52.10
2019-03-10T17:11:24.680Z,59.00
2019-03-10T17:16:00.533Z,62.30
2019-03-10T17:20:36.317Z,56.70
2019-03-10T17:25:12.228Z,56.10
2019-03-10T17:29:48.080Z,63.60
2019-03-10T17:34:23.855Z,61.40
2019-03-10T17:38:59.664Z,64.70
2019-03-10T17:43:35.420Z,63.70
2019-03-10T17:48:13.090Z,62.30
2019-03-10T17:52:49.300Z,61.50
2019-03-10T17:57:25.115Z,62.90
2019-03-10T18:02:08.590Z,58.50
2019-03-10T18:06:38.371Z,56.30
2019-03-10T18:11:14.193Z,57.20
2019-03-10T18:15:49.974Z,59.40
2019-03-10T18:20:25.737Z,55.50
2019-03-10T18:25:01.520Z,55.00
2019-03-10T18:29:37.372Z,53.50
2019-03-10T18:34:13.157Z,50.40
2019-03-10T18:38:48.908Z,52.80
2019-03-10T18:43:25.186Z,50.90
2019-03-10T18:48:01.118Z,50.00
2019-03-10T18:52:36.891Z,49.00
2019-03-10T18:57:12.640Z,48.20
2019-03-10T19:01:48.688Z,47.60
2019-03-10T19:06:24.428Z,45.70
2019-03-10T19:11:00.208Z,41.10
2019-03-10T19:15:35.959Z,39.60
2019-03-10T19:20:13.439Z,43.90
2019-03-10T19:24:49.430Z,44.20
2019-03-10T19:29:25.280Z,41.40
2019-03-10T19:34:01.085Z,42.50
2019-03-10T19:38:36.856Z,42.00
2019-03-10T19:43:12.608Z,42.10
2019-03-10T19:47:48.381Z,44.30
2019-03-10T19:52:24.141Z,49.20
2019-03-10T19:57:00.482Z,49.40
2019-03-10T20:01:36.380Z,49.20
2019-03-10T20:06:12.219Z,53.10
2019-03-10T20:10:48.208Z,52.70
2019-03-10T20:15:24.122Z,57.20
2019-03-10T20:19:59.871Z,60.20
2019-03-10T20:24:35.778Z,62.60
2019-03-10T20:29:11.601Z,67.80
2019-03-10T20:33:47.437Z,65.10
2019-03-10T20:38:25.969Z,66.30
2019-03-10T20:43:01.800Z,67.50
2019-03-10T20:47:38.282Z,66.40
2019-03-10T20:52:14.137Z,65.50
2019-03-10T20:56:49.919Z,65.30
2019-03-10T21:01:25.693Z,68.50
2019-03-10T21:06:01.473Z,70.00
2019-03-10T21:10:37.259Z,73.40
2019-03-10T21:15:14.768Z,73.80
2019-03-10T21:19:50.544Z,74.10
2019-03-10T21:24:26.312Z,71.20
2019-03-10T21:29:03.634Z,68.30
2019-03-10T21:33:39.673Z,71.20
2019-03-10T21:38:15.433Z,69.50
2019-03-10T21:42:51.205Z,72.60
2019-03-10T21:47:26.975Z,73.00
2019-03-10T21:52:02.703Z,69.90
2019-03-10T21:56:38.474Z,70.50
2019-03-10T22:01:14.288Z,72.40
2019-03-10T22:05:50.069Z,64.20
2019-03-10T22:10:27.851Z,65.60
2019-03-10T22:15:03.362Z,64.40
2019-03-10T22:19:39.193Z,65.40
2019-03-10T22:24:14.972Z,64.40
2019-03-10T22:28:50.780Z,58.70
2019-03-10T22:33:26.584Z,59.20
2019-03-10T22:38:02.333Z,62.10
2019-03-10T22:42:38.160Z,60.70
2019-03-10T22:47:13.940Z,59.20
2019-03-10T22:51:49.706Z,61.30
2019-03-10T22:56:25.459Z,64.40
2019-03-10T23:01:01.420Z,65.70
2019-03-10T23:05:37.185Z,65.00
2019-03-10T23:10:13.670Z,65.60
2019-03-10T23:14:49.464Z,64.70
2019-03-10T23:19:25.228Z,67.40
2019-03-10T23:24:00.982Z,63.60
2019-03-10T23:28:36.764Z,62.00
2019-03-10T23:33:12.692Z,62.60
2019-03-10T23:37:48.497Z,64.00
2019-03-10T23:42:24.244Z,66.30
2019-03-10T23:47:00.005Z,67.60
2019-03-10T23:51:35.781Z,67.00
2019-03-10T23:56:11.552Z,64.10
